sensor_id;sensor_type;location;lat;lon;timestamp;P1;durP1;ratioP1;P2;durP2;ratioP2
43429;SDS011;29028;43.234;27.896;2022-12-05T05:01:54;2.65;;;2.25;;
43429;SDS011;29028;43.234;27.896;2022-12-05T05:02:20;3.10;;;2.30;;
43429;SDS011;29028;43.234;27.896;2022-12-05T05:02:49;3.28;;;2.50;;
43429;SDS011;29028;43.234;27.896;2022-12-05T05:03:16;3.53;;;2.50;;
43429;SDS011;29028;43.234;27.896;2022-12-05T05:03:42;3.33;;;2.20;;
43429;SDS011;29028;43.234;27.896;2022-12-05T05:04:09;3.00;;;2.17;;
43429;SDS011;29028;43.234;27.896;2022-12-05T05:04:33;2.53;;;2.25;;
43429;SDS011;29028;43.234;27.896;2022-12-05T05:04:56;2.85;;;2.13;;
43429;SDS011;29028;43.234;27.896;2022-12-05T05:05:20;2.72;;;2.00;;
43429;SDS011;29028;43.234;27.896;2022-12-05T05:05:43;3.17;;;2.28;;
43429;SDS011;29028;43.234;27.896;2022-12-05T05:06:06;3.10;;;2.20;;
43429;SDS011;29028;43.234;27.896;2022-12-05T05:06:30;3.05;;;2.38;;
43429;SDS011;29028;43.234;27.896;2022-12-05T05:06:53;2.88;;;2.20;;
43429;SDS011;29028;43.234;27.896;2022-12-05T05:07:14;3.35;;;2.35;;
43429;SDS011;29028;43.234;27.896;2022-12-05T05:07:41;3.30;;;2.15;;
43429;SDS011;29028;43.234;27.896;2022-12-05T05:08:03;2.50;;;2.10;;
43429;SDS011;29028;43.234;27.896;2022-12-05T05:08:26;2.35;;;2.00;;
43429;SDS011;29028;43.234;27.896;2022-12-05T05:08:49;2.40;;;2.15;;
43429;SDS011;29028;43.234;27.896;2022-12-05T05:09:11;2.53;;;2.10;;
43429;SDS011;29028;43.234;27.896;2022-12-05T05:09:32;2.67;;;2.00;;
43429;SDS011;29028;43.234;27.896;2022-12-05T05:09:54;2.60;;;2.00;;
43429;SDS011;29028;43.234;27.896;2022-12-05T05:10:16;2.67;;;2.03;;
43429;SDS011;29028;43.234;27.896;2022-12-05T05:10:43;3.03;;;2.30;;
43429;SDS011;29028;43.234;27.896;2022-12-05T05:11:11;2.63;;;2.13;;
43429;SDS011;29028;43.234;27.896;2022-12-05T05:11:34;3.10;;;2.25;;
43429;SDS011;29028;43.234;27.896;2022-12-05T05:11:56;3.03;;;2.20;;
43429;SDS011;29028;43.234;27.896;2022-12-05T05:12:17;3.05;;;2.15;;
43429;SDS011;29028;43.234;27.896;2022-12-05T05:12:38;2.93;;;2.43;;
43429;SDS011;29028;43.234;27.896;2022-12-05T05:12:59;2.83;;;2.30;;
43429;SDS011;29028;43.234;27.896;2022-12-05T05:13:21;2.70;;;2.10;;
43429;SDS011;29028;43.234;27.896;2022-12-05T05:13:42;2.60;;;2.00;;
43429;SDS011;29028;43.234;27.896;2022-12-05T05:14:03;2.90;;;2.30;;
43429;SDS011;29028;43.234;27.896;2022-12-05T05:14:25;3.30;;;2.50;;
43429;SDS011;29028;43.234;27.896;2022-12-05T05:14:45;3.22;;;2.40;;
43429;SDS011;29028;43.234;27.896;2022-12-05T05:15:08;3.60;;;2.58;;
43429;SDS011;29028;43.234;27.896;2022-12-05T05:15:29;3.50;;;2.40;;
43429;SDS011;29028;43.234;27.896;2022-12-05T05:15:50;3.08;;;2.30;;
43429;SDS011;29028;43.234;27.896;2022-12-05T05:16:14;3.05;;;2.33;;
43429;SDS011;29028;43.234;27.896;2022-12-05T05:16:40;3.13;;;2.38;;
43429;SDS011;29028;43.234;27.896;2022-12-05T05:17:02;2.70;;;2.15;;
43429;SDS011;29028;43.234;27.896;2022-12-05T05:17:23;2.85;;;2.20;;
43429;SDS011;29028;43.234;27.896;2022-12-05T05:17:44;3.38;;;2.50;;
43429;SDS011;29028;43.234;27.896;2022-12-05T05:18:07;2.83;;;2.45;;
43429;SDS011;29028;43.234;27.896;2022-12-05T05:18:29;3.40;;;2.60;;
43429;SDS011;29028;43.234;27.896;2022-12-05T05:18:50;2.80;;;2.30;;
43429;SDS011;29028;43.234;27.896;2022-12-05T05:19:12;3.67;;;2.60;;
43429;SDS011;29028;43.234;27.896;2022-12-05T05:19:34;2.60;;;2.25;;
43429;SDS011;29028;43.234;27.896;2022-12-05T05:19:55;3.70;;;2.30;;
43429;SDS011;29028;43.234;27.896;2022-12-05T05:20:36;2.78;;;2.47;;
43429;SDS011;29028;43.234;27.896;2022-12-05T05:20:57;3.05;;;2.25;;
43429;SDS011;29028;43.234;27.896;2022-12-05T05:21:20;3.30;;;2.40;;
43429;SDS011;29028;43.234;27.896;2022-12-05T05:21:44;3.40;;;2.30;;
43429;SDS011;29028;43.234;27.896;2022-12-05T05:22:05;3.75;;;2.53;;
43429;SDS011;29028;43.234;27.896;2022-12-05T05:22:26;3.42;;;2.60;;
43429;SDS011;29028;43.234;27.896;2022-12-05T05:22:48;4.63;;;2.58;;
43429;SDS011;29028;43.234;27.896;2022-12-05T05:23:09;4.70;;;2.40;;
43429;SDS011;29028;43.234;27.896;2022-12-05T05:23:30;3.83;;;2.50;;
43429;SDS011;29028;43.234;27.896;2022-12-05T05:23:51;2.70;;;2.20;;
43429;SDS011;29028;43.234;27.896;2022-12-05T05:24:13;2.58;;;2.15;;
43429;SDS011;29028;43.234;27.896;2022-12-05T05:24:34;2.70;;;2.10;;
43429;SDS011;29028;43.234;27.896;2022-12-05T05:24:55;3.03;;;2.10;;
43429;SDS011;29028;43.234;27.896;2022-12-05T05:25:16;3.40;;;2.30;;
43429;SDS011;29028;43.234;27.896;2022-12-05T05:25:38;3.58;;;2.38;;
43429;SDS011;29028;43.234;27.896;2022-12-05T05:26:00;2.88;;;2.10;;
43429;SDS011;29028;43.234;27.896;2022-12-05T05:26:21;2.60;;;2.20;;
43429;SDS011;29028;43.234;27.896;2022-12-05T05:26:43;3.00;;;1.98;;
43429;SDS011;29028;43.234;27.896;2022-12-05T05:27:05;2.70;;;2.00;;
43429;SDS011;29028;43.234;27.896;2022-12-05T05:27:26;2.78;;;2.05;;
43429;SDS011;29028;43.234;27.896;2022-12-05T05:27:48;3.60;;;2.20;;
43429;SDS011;29028;43.234;27.896;2022-12-05T05:28:10;3.40;;;2.20;;
43429;SDS011;29028;43.234;27.896;2022-12-05T05:28:31;3.10;;;2.20;;
43429;SDS011;29028;43.234;27.896;2022-12-05T05:28:52;3.30;;;2.42;;
43429;SDS011;29028;43.234;27.896;2022-12-05T05:29:14;2.95;;;2.20;;
43429;SDS011;29028;43.234;27.896;2022-12-05T05:29:36;2.95;;;2.40;;
43429;SDS011;29028;43.234;27.896;2022-12-05T05:29:57;3.70;;;2.38;;
43429;SDS011;29028;43.234;27.896;2022-12-05T05:30:17;2.75;;;2.20;;
43429;SDS011;29028;43.234;27.896;2022-12-05T05:30:40;3.10;;;2.30;;
43429;SDS011;29028;43.234;27.896;2022-12-05T05:31:01;2.78;;;2.30;;
43429;SDS011;29028;43.234;27.896;2022-12-05T05:31:22;3.03;;;2.50;;
43429;SDS011;29028;43.234;27.896;2022-12-05T05:31:45;3.10;;;2.50;;
43429;SDS011;29028;43.234;27.896;2022-12-05T05:32:07;3.88;;;2.70;;
43429;SDS011;29028;43.234;27.896;2022-12-05T05:32:28;3.72;;;2.72;;
43429;SDS011;29028;43.234;27.896;2022-12-05T05:32:51;3.90;;;2.70;;
43429;SDS011;29028;43.234;27.896;2022-12-05T05:33:13;3.97;;;2.80;;
43429;SDS011;29028;43.234;27.896;2022-12-05T05:33:35;3.70;;;2.70;;
43429;SDS011;29028;43.234;27.896;2022-12-05T05:33:56;3.28;;;2.40;;
43429;SDS011;29028;43.234;27.896;2022-12-05T05:34:17;3.40;;;2.60;;
43429;SDS011;29028;43.234;27.896;2022-12-05T05:34:38;3.33;;;2.65;;
43429;SDS011;29028;43.234;27.896;2022-12-05T05:35:00;3.72;;;2.97;;
43429;SDS011;29028;43.234;27.896;2022-12-05T05:35:21;4.15;;;3.05;;
43429;SDS011;29028;43.234;27.896;2022-12-05T05:35:42;4.72;;;3.33;;
43429;SDS011;29028;43.234;27.896;2022-12-05T05:36:03;3.80;;;3.03;;
43429;SDS011;29028;43.234;27.896;2022-12-05T05:36:26;3.78;;;3.10;;
43429;SDS011;29028;43.234;27.896;2022-12-05T05:36:50;3.95;;;3.25;;
43429;SDS011;29028;43.234;27.896;2022-12-05T05:37:12;3.85;;;3.17;;
43429;SDS011;29028;43.234;27.896;2022-12-05T05:37:33;3.90;;;3.15;;
43429;SDS011;29028;43.234;27.896;2022-12-05T05:37:57;3.50;;;2.80;;
43429;SDS011;29028;43.234;27.896;2022-12-05T05:38:18;3.47;;;2.92;;
43429;SDS011;29028;43.234;27.896;2022-12-05T05:38:39;3.45;;;2.75;;
43429;SDS011;29028;43.234;27.896;2022-12-05T05:39:02;3.00;;;2.42;;
43429;SDS011;29028;43.234;27.896;2022-12-05T05:39:26;3.58;;;2.70;;
43429;SDS011;29028;43.234;27.896;2022-12-05T05:39:48;3.50;;;2.65;;
43429;SDS011;29028;43.234;27.896;2022-12-05T05:40:10;2.95;;;2.40;;
43429;SDS011;29028;43.234;27.896;2022-12-05T05:40:35;2.50;;;2.10;;
43429;SDS011;29028;43.234;27.896;2022-12-05T05:40:56;3.10;;;2.40;;
43429;SDS011;29028;43.234;27.896;2022-12-05T05:41:18;3.13;;;2.40;;
43429;SDS011;29028;43.234;27.896;2022-12-05T05:41:41;3.05;;;2.40;;
43429;SDS011;29028;43.234;27.896;2022-12-05T05:42:04;2.95;;;2.25;;
43429;SDS011;29028;43.234;27.896;2022-12-05T05:42:25;4.05;;;2.58;;
43429;SDS011;29028;43.234;27.896;2022-12-05T05:42:47;3.42;;;2.40;;
43429;SDS011;29028;43.234;27.896;2022-12-05T05:43:09;3.05;;;2.55;;
43429;SDS011;29028;43.234;27.896;2022-12-05T05:43:31;3.05;;;2.42;;
43429;SDS011;29028;43.234;27.896;2022-12-05T05:43:52;2.65;;;2.10;;
43429;SDS011;29028;43.234;27.896;2022-12-05T05:44:13;2.88;;;2.30;;
43429;SDS011;29028;43.234;27.896;2022-12-05T05:44:34;3.40;;;2.40;;
43429;SDS011;29028;43.234;27.896;2022-12-05T05:44:56;3.60;;;2.42;;
43429;SDS011;29028;43.234;27.896;2022-12-05T05:45:17;3.20;;;2.38;;
43429;SDS011;29028;43.234;27.896;2022-12-05T05:45:38;3.42;;;2.53;;
43429;SDS011;29028;43.234;27.896;2022-12-05T05:46:01;3.60;;;2.65;;
43429;SDS011;29028;43.234;27.896;2022-12-05T05:46:25;3.20;;;2.58;;
43429;SDS011;29028;43.234;27.896;2022-12-05T05:46:48;3.13;;;2.53;;
43429;SDS011;29028;43.234;27.896;2022-12-05T05:47:09;3.75;;;2.50;;
43429;SDS011;29028;43.234;27.896;2022-12-05T05:47:30;3.67;;;2.42;;
43429;SDS011;29028;43.234;27.896;2022-12-05T05:47:52;3.22;;;2.63;;
43429;SDS011;29028;43.234;27.896;2022-12-05T05:48:13;4.40;;;3.20;;
43429;SDS011;29028;43.234;27.896;2022-12-05T05:48:34;4.80;;;2.80;;
43429;SDS011;29028;43.234;27.896;2022-12-05T05:48:56;5.35;;;3.00;;
43429;SDS011;29028;43.234;27.896;2022-12-05T05:49:18;4.18;;;3.00;;
43429;SDS011;29028;43.234;27.896;2022-12-05T05:49:38;3.55;;;2.80;;
43429;SDS011;29028;43.234;27.896;2022-12-05T05:49:59;3.67;;;2.90;;
43429;SDS011;29028;43.234;27.896;2022-12-05T05:50:20;4.35;;;2.95;;
43429;SDS011;29028;43.234;27.896;2022-12-05T05:50:42;4.32;;;3.10;;
43429;SDS011;29028;43.234;27.896;2022-12-05T05:51:04;4.13;;;3.00;;
43429;SDS011;29028;43.234;27.896;2022-12-05T05:51:26;3.85;;;2.72;;
43429;SDS011;29028;43.234;27.896;2022-12-05T05:51:50;3.97;;;2.70;;
43429;SDS011;29028;43.234;27.896;2022-12-05T05:52:10;3.80;;;2.85;;
43429;SDS011;29028;43.234;27.896;2022-12-05T05:52:33;3.72;;;2.78;;
43429;SDS011;29028;43.234;27.896;2022-12-05T05:52:54;3.75;;;2.83;;
43429;SDS011;29028;43.234;27.896;2022-12-05T05:53:15;3.65;;;2.58;;
43429;SDS011;29028;43.234;27.896;2022-12-05T05:53:36;3.67;;;2.63;;
43429;SDS011;29028;43.234;27.896;2022-12-05T05:53:58;3.92;;;2.70;;
43429;SDS011;29028;43.234;27.896;2022-12-05T05:54:20;5.57;;;3.75;;
43429;SDS011;29028;43.234;27.896;2022-12-05T05:54:41;5.93;;;3.80;;
43429;SDS011;29028;43.234;27.896;2022-12-05T05:55:03;4.90;;;3.30;;
43429;SDS011;29028;43.234;27.896;2022-12-05T05:55:26;4.40;;;3.05;;
43429;SDS011;29028;43.234;27.896;2022-12-05T05:55:47;4.93;;;3.33;;
43429;SDS011;29028;43.234;27.896;2022-12-05T05:56:09;4.75;;;3.20;;
43429;SDS011;29028;43.234;27.896;2022-12-05T05:56:31;4.65;;;3.33;;
43429;SDS011;29028;43.234;27.896;2022-12-05T05:56:52;4.55;;;3.33;;
43429;SDS011;29028;43.234;27.896;2022-12-05T05:57:13;4.53;;;3.33;;
43429;SDS011;29028;43.234;27.896;2022-12-05T05:57:36;5.00;;;3.38;;
43429;SDS011;29028;43.234;27.896;2022-12-05T05:57:58;5.18;;;3.40;;
43429;SDS011;29028;43.234;27.896;2022-12-05T05:58:19;5.80;;;3.30;;
43429;SDS011;29028;43.234;27.896;2022-12-05T05:58:40;5.70;;;3.33;;
43429;SDS011;29028;43.234;27.896;2022-12-05T05:59:02;4.93;;;3.13;;
43429;SDS011;29028;43.234;27.896;2022-12-05T05:59:24;5.18;;;3.20;;
43429;SDS011;29028;43.234;27.896;2022-12-05T05:59:45;4.40;;;3.17;;
43429;SDS011;29028;43.234;27.896;2022-12-05T06:00:06;4.20;;;2.90;;
43429;SDS011;29028;43.234;27.896;2022-12-05T06:00:34;4.07;;;3.13;;
43429;SDS011;29028;43.234;27.896;2022-12-05T06:00:57;3.97;;;3.30;;
43429;SDS011;29028;43.234;27.896;2022-12-05T06:01:22;3.40;;;3.00;;
43429;SDS011;29028;43.234;27.896;2022-12-05T06:01:43;3.20;;;2.60;;
43429;SDS011;29028;43.234;27.896;2022-12-05T06:02:07;3.70;;;2.67;;
43429;SDS011;29028;43.234;27.896;2022-12-05T06:02:30;4.00;;;2.78;;
43429;SDS011;29028;43.234;27.896;2022-12-05T06:02:52;4.70;;;2.90;;
43429;SDS011;29028;43.234;27.896;2022-12-05T06:03:14;4.57;;;3.05;;
43429;SDS011;29028;43.234;27.896;2022-12-05T06:03:38;4.22;;;2.97;;
43429;SDS011;29028;43.234;27.896;2022-12-05T06:04:00;4.30;;;2.88;;
43429;SDS011;29028;43.234;27.896;2022-12-05T06:04:21;3.90;;;3.00;;
43429;SDS011;29028;43.234;27.896;2022-12-05T06:04:43;4.13;;;3.15;;
43429;SDS011;29028;43.234;27.896;2022-12-05T06:05:04;4.20;;;2.90;;
43429;SDS011;29028;43.234;27.896;2022-12-05T06:05:25;3.63;;;2.90;;
43429;SDS011;29028;43.234;27.896;2022-12-05T06:05:54;3.80;;;2.90;;
43429;SDS011;29028;43.234;27.896;2022-12-05T06:06:17;3.75;;;2.70;;
43429;SDS011;29028;43.234;27.896;2022-12-05T06:06:39;4.20;;;3.05;;
43429;SDS011;29028;43.234;27.896;2022-12-05T06:07:00;4.45;;;3.15;;
43429;SDS011;29028;43.234;27.896;2022-12-05T06:07:20;4.33;;;2.90;;
43429;SDS011;29028;43.234;27.896;2022-12-05T06:07:42;4.65;;;3.13;;
43429;SDS011;29028;43.234;27.896;2022-12-05T06:08:04;4.03;;;3.05;;
43429;SDS011;29028;43.234;27.896;2022-12-05T06:08:25;3.63;;;2.67;;
43429;SDS011;29028;43.234;27.896;2022-12-05T06:08:49;4.00;;;3.10;;
43429;SDS011;29028;43.234;27.896;2022-12-05T06:09:11;3.50;;;2.83;;
43429;SDS011;29028;43.234;27.896;2022-12-05T06:09:31;3.58;;;2.78;;
43429;SDS011;29028;43.234;27.896;2022-12-05T06:09:52;3.25;;;2.80;;
43429;SDS011;29028;43.234;27.896;2022-12-05T06:10:14;3.22;;;2.70;;
43429;SDS011;29028;43.234;27.896;2022-12-05T06:10:37;3.47;;;2.65;;
43429;SDS011;29028;43.234;27.896;2022-12-05T06:10:58;3.88;;;2.78;;
43429;SDS011;29028;43.234;27.896;2022-12-05T06:11:19;4.22;;;2.97;;
43429;SDS011;29028;43.234;27.896;2022-12-05T06:11:42;3.83;;;2.83;;
43429;SDS011;29028;43.234;27.896;2022-12-05T06:12:04;4.63;;;3.10;;
43429;SDS011;29028;43.234;27.896;2022-12-05T06:12:25;4.13;;;2.92;;
43429;SDS011;29028;43.234;27.896;2022-12-05T06:12:46;4.25;;;3.30;;
43429;SDS011;29028;43.234;27.896;2022-12-05T06:13:08;4.72;;;3.35;;
43429;SDS011;29028;43.234;27.896;2022-12-05T06:13:29;3.50;;;3.03;;
43429;SDS011;29028;43.234;27.896;2022-12-05T06:13:50;3.45;;;2.90;;
43429;SDS011;29028;43.234;27.896;2022-12-05T06:14:11;3.75;;;2.90;;
43429;SDS011;29028;43.234;27.896;2022-12-05T06:14:33;3.88;;;3.00;;
43429;SDS011;29028;43.234;27.896;2022-12-05T06:14:54;3.88;;;3.05;;
43429;SDS011;29028;43.234;27.896;2022-12-05T06:15:15;4.17;;;3.20;;
43429;SDS011;29028;43.234;27.896;2022-12-05T06:15:36;3.42;;;2.95;;
43429;SDS011;29028;43.234;27.896;2022-12-05T06:15:58;3.65;;;3.08;;
43429;SDS011;29028;43.234;27.896;2022-12-05T06:16:19;3.60;;;2.92;;
43429;SDS011;29028;43.234;27.896;2022-12-05T06:16:40;3.67;;;3.10;;
43429;SDS011;29028;43.234;27.896;2022-12-05T06:17:01;4.43;;;3.20;;
43429;SDS011;29028;43.234;27.896;2022-12-05T06:17:25;4.22;;;2.78;;
43429;SDS011;29028;43.234;27.896;2022-12-05T06:17:46;3.78;;;2.80;;
43429;SDS011;29028;43.234;27.896;2022-12-05T06:18:07;3.50;;;2.90;;
43429;SDS011;29028;43.234;27.896;2022-12-05T06:18:29;3.70;;;2.85;;
43429;SDS011;29028;43.234;27.896;2022-12-05T06:18:50;4.03;;;2.80;;
43429;SDS011;29028;43.234;27.896;2022-12-05T06:19:12;3.50;;;2.83;;
43429;SDS011;29028;43.234;27.896;2022-12-05T06:19:34;4.57;;;3.28;;
43429;SDS011;29028;43.234;27.896;2022-12-05T06:19:55;5.15;;;3.72;;
43429;SDS011;29028;43.234;27.896;2022-12-05T06:20:16;4.78;;;3.47;;
43429;SDS011;29028;43.234;27.896;2022-12-05T06:20:37;5.35;;;3.40;;
43429;SDS011;29028;43.234;27.896;2022-12-05T06:20:59;4.75;;;3.40;;
43429;SDS011;29028;43.234;27.896;2022-12-05T06:21:20;5.03;;;3.22;;
43429;SDS011;29028;43.234;27.896;2022-12-05T06:21:42;4.90;;;3.30;;
43429;SDS011;29028;43.234;27.896;2022-12-05T06:22:04;3.95;;;3.05;;
43429;SDS011;29028;43.234;27.896;2022-12-05T06:22:25;3.67;;;3.03;;
43429;SDS011;29028;43.234;27.896;2022-12-05T06:22:46;3.78;;;3.08;;
43429;SDS011;29028;43.234;27.896;2022-12-05T06:23:08;4.53;;;3.20;;
43429;SDS011;29028;43.234;27.896;2022-12-05T06:23:29;3.92;;;2.90;;
43429;SDS011;29028;43.234;27.896;2022-12-05T06:23:50;3.75;;;3.00;;
43429;SDS011;29028;43.234;27.896;2022-12-05T06:24:13;3.70;;;3.00;;
43429;SDS011;29028;43.234;27.896;2022-12-05T06:24:34;3.47;;;2.88;;
43429;SDS011;29028;43.234;27.896;2022-12-05T06:24:56;3.75;;;2.90;;
43429;SDS011;29028;43.234;27.896;2022-12-05T06:25:17;3.42;;;2.90;;
43429;SDS011;29028;43.234;27.896;2022-12-05T06:25:38;3.75;;;3.13;;
43429;SDS011;29028;43.234;27.896;2022-12-05T06:25:59;3.92;;;3.20;;
43429;SDS011;29028;43.234;27.896;2022-12-05T06:26:21;3.80;;;3.03;;
43429;SDS011;29028;43.234;27.896;2022-12-05T06:26:42;4.00;;;3.42;;
43429;SDS011;29028;43.234;27.896;2022-12-05T06:27:03;3.75;;;3.22;;
43429;SDS011;29028;43.234;27.896;2022-12-05T06:27:26;4.45;;;3.38;;
43429;SDS011;29028;43.234;27.896;2022-12-05T06:27:51;4.03;;;3.22;;
43429;SDS011;29028;43.234;27.896;2022-12-05T06:28:12;3.60;;;3.00;;
43429;SDS011;29028;43.234;27.896;2022-12-05T06:28:34;4.03;;;3.40;;
43429;SDS011;29028;43.234;27.896;2022-12-05T06:28:56;3.45;;;2.97;;
43429;SDS011;29028;43.234;27.896;2022-12-05T06:29:18;4.03;;;3.10;;
43429;SDS011;29028;43.234;27.896;2022-12-05T06:29:39;4.00;;;3.10;;
43429;SDS011;29028;43.234;27.896;2022-12-05T06:30:00;3.87;;;3.07;;
43429;SDS011;29028;43.234;27.896;2022-12-05T06:30:21;4.20;;;3.27;;
43429;SDS011;29028;43.234;27.896;2022-12-05T06:30:44;5.70;;;3.60;;
43429;SDS011;29028;43.234;27.896;2022-12-05T06:31:06;4.13;;;3.30;;
43429;SDS011;29028;43.234;27.896;2022-12-05T06:31:28;3.65;;;3.08;;
43429;SDS011;29028;43.234;27.896;2022-12-05T06:31:50;4.20;;;3.08;;
43429;SDS011;29028;43.234;27.896;2022-12-05T06:32:12;4.03;;;3.15;;
43429;SDS011;29028;43.234;27.896;2022-12-05T06:32:35;4.27;;;3.40;;
43429;SDS011;29028;43.234;27.896;2022-12-05T06:32:55;4.25;;;3.15;;
43429;SDS011;29028;43.234;27.896;2022-12-05T06:33:16;3.97;;;2.70;;
43429;SDS011;29028;43.234;27.896;2022-12-05T06:33:39;4.07;;;2.72;;
43429;SDS011;29028;43.234;27.896;2022-12-05T06:34:00;4.28;;;2.88;;
43429;SDS011;29028;43.234;27.896;2022-12-05T06:34:21;3.15;;;2.65;;
43429;SDS011;29028;43.234;27.896;2022-12-05T06:34:44;3.05;;;2.58;;
43429;SDS011;29028;43.234;27.896;2022-12-05T06:35:07;3.00;;;2.45;;
43429;SDS011;29028;43.234;27.896;2022-12-05T06:35:34;3.00;;;2.53;;
43429;SDS011;29028;43.234;27.896;2022-12-05T06:36:02;3.72;;;2.80;;
43429;SDS011;29028;43.234;27.896;2022-12-05T06:36:26;3.03;;;2.60;;
43429;SDS011;29028;43.234;27.896;2022-12-05T06:36:47;3.00;;;2.65;;
43429;SDS011;29028;43.234;27.896;2022-12-05T06:37:08;3.67;;;2.58;;
43429;SDS011;29028;43.234;27.896;2022-12-05T06:37:30;3.28;;;2.63;;
43429;SDS011;29028;43.234;27.896;2022-12-05T06:37:51;3.30;;;2.67;;
43429;SDS011;29028;43.234;27.896;2022-12-05T06:38:12;3.53;;;2.70;;
43429;SDS011;29028;43.234;27.896;2022-12-05T06:38:33;2.70;;;2.20;;
43429;SDS011;29028;43.234;27.896;2022-12-05T06:38:55;3.35;;;2.58;;
43429;SDS011;29028;43.234;27.896;2022-12-05T06:39:17;3.10;;;2.58;;
43429;SDS011;29028;43.234;27.896;2022-12-05T06:39:38;3.67;;;2.70;;
43429;SDS011;29028;43.234;27.896;2022-12-05T06:39:59;3.22;;;2.45;;
43429;SDS011;29028;43.234;27.896;2022-12-05T06:40:20;3.30;;;2.60;;
43429;SDS011;29028;43.234;27.896;2022-12-05T06:40:43;3.13;;;2.60;;
43429;SDS011;29028;43.234;27.896;2022-12-05T06:41:04;3.25;;;2.80;;
43429;SDS011;29028;43.234;27.896;2022-12-05T06:41:26;3.17;;;2.88;;
43429;SDS011;29028;43.234;27.896;2022-12-05T06:41:47;3.30;;;2.92;;
43429;SDS011;29028;43.234;27.896;2022-12-05T06:42:09;3.78;;;2.90;;
43429;SDS011;29028;43.234;27.896;2022-12-05T06:42:30;3.75;;;2.80;;
43429;SDS011;29028;43.234;27.896;2022-12-05T06:42:51;4.70;;;2.72;;
43429;SDS011;29028;43.234;27.896;2022-12-05T06:43:12;3.63;;;2.67;;
43429;SDS011;29028;43.234;27.896;2022-12-05T06:43:34;3.55;;;2.72;;
43429;SDS011;29028;43.234;27.896;2022-12-05T06:43:55;4.40;;;2.88;;
43429;SDS011;29028;43.234;27.896;2022-12-05T06:44:18;4.32;;;2.90;;
43429;SDS011;29028;43.234;27.896;2022-12-05T06:44:40;3.53;;;2.72;;
43429;SDS011;29028;43.234;27.896;2022-12-05T06:45:02;4.30;;;2.80;;
43429;SDS011;29028;43.234;27.896;2022-12-05T06:45:24;3.20;;;2.70;;
43429;SDS011;29028;43.234;27.896;2022-12-05T06:45:45;3.17;;;2.70;;
43429;SDS011;29028;43.234;27.896;2022-12-05T06:46:06;3.53;;;2.60;;
43429;SDS011;29028;43.234;27.896;2022-12-05T06:46:30;4.32;;;2.83;;
43429;SDS011;29028;43.234;27.896;2022-12-05T06:46:51;3.58;;;2.78;;
43429;SDS011;29028;43.234;27.896;2022-12-05T06:47:13;3.17;;;2.78;;
43429;SDS011;29028;43.234;27.896;2022-12-05T06:47:36;2.90;;;2.40;;
43429;SDS011;29028;43.234;27.896;2022-12-05T06:47:57;3.00;;;2.40;;
43429;SDS011;29028;43.234;27.896;2022-12-05T06:48:18;3.15;;;2.50;;
43429;SDS011;29028;43.234;27.896;2022-12-05T06:48:39;3.57;;;2.83;;
43429;SDS011;29028;43.234;27.896;2022-12-05T06:49:01;3.75;;;3.05;;
43429;SDS011;29028;43.234;27.896;2022-12-05T06:49:22;3.50;;;3.00;;
43429;SDS011;29028;43.234;27.896;2022-12-05T06:49:45;3.10;;;2.50;;
43429;SDS011;29028;43.234;27.896;2022-12-05T06:50:07;3.55;;;2.83;;
43429;SDS011;29028;43.234;27.896;2022-12-05T06:50:29;4.28;;;3.00;;
43429;SDS011;29028;43.234;27.896;2022-12-05T06:50:50;3.92;;;2.80;;
43429;SDS011;29028;43.234;27.896;2022-12-05T06:51:12;3.15;;;2.60;;
43429;SDS011;29028;43.234;27.896;2022-12-05T06:51:35;3.55;;;2.70;;
43429;SDS011;29028;43.234;27.896;2022-12-05T06:51:57;3.30;;;2.80;;
43429;SDS011;29028;43.234;27.896;2022-12-05T06:52:18;4.25;;;2.80;;
43429;SDS011;29028;43.234;27.896;2022-12-05T06:52:39;4.07;;;2.67;;
43429;SDS011;29028;43.234;27.896;2022-12-05T06:53:01;3.50;;;2.88;;
43429;SDS011;29028;43.234;27.896;2022-12-05T06:53:22;4.43;;;3.23;;
43429;SDS011;29028;43.234;27.896;2022-12-05T06:53:43;4.47;;;3.10;;
43429;SDS011;29028;43.234;27.896;2022-12-05T06:54:04;4.00;;;3.05;;
43429;SDS011;29028;43.234;27.896;2022-12-05T06:54:27;4.20;;;3.00;;
43429;SDS011;29028;43.234;27.896;2022-12-05T06:54:48;3.25;;;2.65;;
43429;SDS011;29028;43.234;27.896;2022-12-05T06:55:09;3.30;;;2.72;;
43429;SDS011;29028;43.234;27.896;2022-12-05T06:55:30;3.70;;;3.00;;
43429;SDS011;29028;43.234;27.896;2022-12-05T06:55:55;4.18;;;3.28;;
43429;SDS011;29028;43.234;27.896;2022-12-05T06:56:17;4.43;;;3.20;;
43429;SDS011;29028;43.234;27.896;2022-12-05T06:56:39;4.20;;;3.10;;
43429;SDS011;29028;43.234;27.896;2022-12-05T06:57:00;4.28;;;3.13;;
43429;SDS011;29028;43.234;27.896;2022-12-05T06:57:22;3.45;;;2.70;;
43429;SDS011;29028;43.234;27.896;2022-12-05T06:57:42;3.65;;;2.88;;
43429;SDS011;29028;43.234;27.896;2022-12-05T06:58:03;4.32;;;3.17;;
43429;SDS011;29028;43.234;27.896;2022-12-05T06:58:24;4.60;;;3.47;;
43429;SDS011;29028;43.234;27.896;2022-12-05T06:58:48;5.35;;;3.70;;
43429;SDS011;29028;43.234;27.896;2022-12-05T06:59:11;4.78;;;3.45;;
43429;SDS011;29028;43.234;27.896;2022-12-05T06:59:33;5.70;;;3.92;;
43429;SDS011;29028;43.234;27.896;2022-12-05T06:59:54;6.05;;;4.00;;
43429;SDS011;29028;43.234;27.896;2022-12-05T07:00:40;4.00;;;3.00;;
43429;SDS011;29028;43.234;27.896;2022-12-05T07:01:20;4.53;;;3.30;;
43429;SDS011;29028;43.234;27.896;2022-12-05T07:02:01;3.88;;;2.63;;
43429;SDS011;29028;43.234;27.896;2022-12-05T07:02:22;3.85;;;2.90;;
43429;SDS011;29028;43.234;27.896;2022-12-05T07:02:44;3.63;;;2.72;;
43429;SDS011;29028;43.234;27.896;2022-12-05T07:03:05;3.90;;;3.00;;
43429;SDS011;29028;43.234;27.896;2022-12-05T07:03:26;3.50;;;2.77;;
43429;SDS011;29028;43.234;27.896;2022-12-05T07:03:48;3.80;;;3.05;;
43429;SDS011;29028;43.234;27.896;2022-12-05T07:04:11;3.65;;;3.10;;
43429;SDS011;29028;43.234;27.896;2022-12-05T07:04:34;3.63;;;3.05;;
43429;SDS011;29028;43.234;27.896;2022-12-05T07:04:56;3.83;;;3.13;;
43429;SDS011;29028;43.234;27.896;2022-12-05T07:05:19;4.00;;;3.10;;
43429;SDS011;29028;43.234;27.896;2022-12-05T07:05:40;4.00;;;3.08;;
43429;SDS011;29028;43.234;27.896;2022-12-05T07:06:01;3.42;;;2.95;;
43429;SDS011;29028;43.234;27.896;2022-12-05T07:06:25;3.42;;;2.88;;
43429;SDS011;29028;43.234;27.896;2022-12-05T07:06:46;4.45;;;3.30;;
43429;SDS011;29028;43.234;27.896;2022-12-05T07:07:08;4.03;;;3.13;;
43429;SDS011;29028;43.234;27.896;2022-12-05T07:07:32;4.50;;;3.03;;
43429;SDS011;29028;43.234;27.896;2022-12-05T07:07:53;4.07;;;3.03;;
43429;SDS011;29028;43.234;27.896;2022-12-05T07:08:14;4.00;;;2.85;;
43429;SDS011;29028;43.234;27.896;2022-12-05T07:08:35;3.28;;;2.70;;
43429;SDS011;29028;43.234;27.896;2022-12-05T07:08:57;4.35;;;3.15;;
43429;SDS011;29028;43.234;27.896;2022-12-05T07:09:18;3.78;;;3.28;;
43429;SDS011;29028;43.234;27.896;2022-12-05T07:09:41;3.92;;;2.97;;
43429;SDS011;29028;43.234;27.896;2022-12-05T07:10:07;4.15;;;3.10;;
43429;SDS011;29028;43.234;27.896;2022-12-05T07:10:29;3.30;;;2.80;;
43429;SDS011;29028;43.234;27.896;2022-12-05T07:10:50;3.60;;;2.90;;
43429;SDS011;29028;43.234;27.896;2022-12-05T07:11:11;3.45;;;2.90;;
43429;SDS011;29028;43.234;27.896;2022-12-05T07:11:33;3.72;;;2.83;;
43429;SDS011;29028;43.234;27.896;2022-12-05T07:11:55;3.88;;;2.65;;
43429;SDS011;29028;43.234;27.896;2022-12-05T07:12:17;4.22;;;2.95;;
43429;SDS011;29028;43.234;27.896;2022-12-05T07:12:38;4.68;;;3.20;;
43429;SDS011;29028;43.234;27.896;2022-12-05T07:13:00;3.45;;;2.97;;
43429;SDS011;29028;43.234;27.896;2022-12-05T07:13:21;5.20;;;3.72;;